Terminal Aerodrome Forecast
Issued by NWS

Home | Current Version | Previous Version | Text Only | Print | Product List | Glossary On
Versions: 1 2 3 4 5 6 7 8 9 10 11 12 13 14 15
513
FTUS46 KSTO 220549
TAFSMF
TAF
KSMF 220549Z 2206/2306 15025G35KT P6SM -RA OVC040
      TEMPO 2206/2210 3SM RA OVC025
     FM221000 15035G50KT P6SM RA OVC015
     FM221500 16022G32KT P6SM -RA OVC015
     FM222100 18012G20KT P6SM VCTS OVC050CB
      TEMPO 2221/2301 5SM -SHRA OVC025=

USA.gov is the U.S. government's official web portal to all federal, state and local government web resources and services.